sensor_id;sensor_type;location;lat;lon;timestamp;pressure;altitude;pressure_sealevel;temperature;humidity
69171;BME280;56279;47.902;12.308;2022-12-10T00:01:36;94064.69;;;1.11;94.25
69171;BME280;56279;47.902;12.308;2022-12-10T00:03:37;94072.47;;;1.11;93.76
69171;BME280;56279;47.902;12.308;2022-12-10T00:05:38;94079.47;;;1.10;93.78
69171;BME280;56279;47.902;12.308;2022-12-10T00:07:41;94077.66;;;1.11;93.88
69171;BME280;56279;47.902;12.308;2022-12-10T00:09:43;94082.06;;;1.10;94.63
69171;BME280;56279;47.902;12.308;2022-12-10T00:11:44;94079.47;;;1.10;94.22
69171;BME280;56279;47.902;12.308;2022-12-10T00:13:46;94079.47;;;1.10;93.55
69171;BME280;56279;47.902;12.308;2022-12-10T00:15:48;94067.03;;;1.12;94.34
69171;BME280;56279;47.902;12.308;2022-12-10T00:17:49;94060.81;;;1.13;94.48
69171;BME280;56279;47.902;12.308;2022-12-10T00:19:50;94073.53;;;1.15;93.93
69171;BME280;56279;47.902;12.308;2022-12-10T00:21:52;94069.91;;;1.16;93.96
69171;BME280;56279;47.902;12.308;2022-12-10T00:23:53;94071.72;;;1.15;94.02
69171;BME280;56279;47.902;12.308;2022-12-10T00:26:05;94083.94;;;1.15;94.43
69171;BME280;56279;47.902;12.308;2022-12-10T00:28:07;94086.28;;;1.16;94.04
69171;BME280;56279;47.902;12.308;2022-12-10T00:30:09;94086.28;;;1.16;94.30
69171;BME280;56279;47.902;12.308;2022-12-10T00:32:10;94077.44;;;1.17;94.02
69171;BME280;56279;47.902;12.308;2022-12-10T00:34:11;94065.25;;;1.18;93.91
69171;BME280;56279;47.902;12.308;2022-12-10T00:36:16;94081.63;;;1.18;94.02
69171;BME280;56279;47.902;12.308;2022-12-10T00:38:17;94082.13;;;1.15;94.27
69171;BME280;56279;47.902;12.308;2022-12-10T00:40:20;94072.78;;;1.14;93.85
69171;BME280;56279;47.902;12.308;2022-12-10T00:42:22;94086.28;;;1.16;94.35
69171;BME280;56279;47.902;12.308;2022-12-10T00:44:23;94091.50;;;1.16;94.30
69171;BME280;56279;47.902;12.308;2022-12-10T00:46:24;94095.09;;;1.15;94.46
69171;BME280;56279;47.902;12.308;2022-12-10T00:48:26;94093.56;;;1.14;94.04
69171;BME280;56279;47.902;12.308;2022-12-10T00:50:28;94089.91;;;1.15;93.76
69171;BME280;56279;47.902;12.308;2022-12-10T00:52:30;94086.00;;;1.13;93.93
69171;BME280;56279;47.902;12.308;2022-12-10T00:54:33;94090.41;;;1.12;94.49
69171;BME280;56279;47.902;12.308;2022-12-10T00:56:36;94082.06;;;1.10;94.32
69171;BME280;56279;47.902;12.308;2022-12-10T00:58:38;94087.53;;;1.09;93.83
69171;BME280;56279;47.902;12.308;2022-12-10T01:00:39;94081.53;;;1.08;93.86
69171;BME280;56279;47.902;12.308;2022-12-10T01:02:41;94091.41;;;1.06;93.93
69171;BME280;56279;47.902;12.308;2022-12-10T01:04:42;94091.41;;;1.06;93.84
69171;BME280;56279;47.902;12.308;2022-12-10T01:06:54;94093.47;;;1.04;94.22
69171;BME280;56279;47.902;12.308;2022-12-10T01:09:00;94105.41;;;1.05;93.73
69171;BME280;56279;47.902;12.308;2022-12-10T01:11:05;94106.19;;;1.06;93.43
69171;BME280;56279;47.902;12.308;2022-12-10T01:13:06;94103.38;;;1.07;94.00
69171;BME280;56279;47.902;12.308;2022-12-10T01:15:08;94103.38;;;1.07;94.04
69171;BME280;56279;47.902;12.308;2022-12-10T01:17:09;94107.53;;;1.08;94.21
69171;BME280;56279;47.902;12.308;2022-12-10T01:19:11;94109.84;;;1.10;94.23
69171;BME280;56279;47.902;12.308;2022-12-10T01:21:16;94092.72;;;1.09;94.04
69171;BME280;56279;47.902;12.308;2022-12-10T01:23:17;94085.72;;;1.09;93.75
69171;BME280;56279;47.902;12.308;2022-12-10T01:25:19;94084.16;;;1.08;94.78
69171;BME280;56279;47.902;12.308;2022-12-10T01:27:20;94088.53;;;1.08;94.33
69171;BME280;56279;47.902;12.308;2022-12-10T01:29:21;94101.78;;;1.06;94.15
69171;BME280;56279;47.902;12.308;2022-12-10T01:31:32;94101.78;;;1.06;94.66
69171;BME280;56279;47.902;12.308;2022-12-10T01:33:34;94103.59;;;1.06;94.66
69171;BME280;56279;47.902;12.308;2022-12-10T01:35:37;94101.78;;;1.06;94.51
69171;BME280;56279;47.902;12.308;2022-12-10T01:37:38;94111.41;;;1.06;94.56
69171;BME280;56279;47.902;12.308;2022-12-10T01:39:40;94110.38;;;1.07;94.43
69171;BME280;56279;47.902;12.308;2022-12-10T01:41:46;94100.53;;;1.09;93.84
69171;BME280;56279;47.902;12.308;2022-12-10T01:45:55;94107.03;;;1.11;94.51
69171;BME280;56279;47.902;12.308;2022-12-10T01:47:56;94098.97;;;1.13;94.13
69171;BME280;56279;47.902;12.308;2022-12-10T01:49:59;94099.78;;;1.13;94.52
69171;BME280;56279;47.902;12.308;2022-12-10T01:52:03;94095.09;;;1.15;94.33
69171;BME280;56279;47.902;12.308;2022-12-10T01:54:10;94091.50;;;1.16;93.58
69171;BME280;56279;47.902;12.308;2022-12-10T01:56:12;94087.84;;;1.17;94.56
69171;BME280;56279;47.902;12.308;2022-12-10T01:58:16;94085.78;;;1.19;94.21
69171;BME280;56279;47.902;12.308;2022-12-10T02:00:19;94086.81;;;1.18;93.84
69171;BME280;56279;47.902;12.308;2022-12-10T02:02:43;94089.44;;;1.18;93.66
69171;BME280;56279;47.902;12.308;2022-12-10T02:07:02;94095.63;;;1.17;93.94
69171;BME280;56279;47.902;12.308;2022-12-10T02:11:43;94088.91;;;1.16;94.30
69171;BME280;56279;47.902;12.308;2022-12-10T02:16:41;94092.72;;;1.09;94.12
69171;BME280;56279;47.902;12.308;2022-12-10T02:19:00;94098.19;;;1.07;94.05
69171;BME280;56279;47.902;12.308;2022-12-10T02:21:09;94097.13;;;1.08;93.88
69171;BME280;56279;47.902;12.308;2022-12-10T02:23:16;94109.59;;;1.06;93.90
69171;BME280;56279;47.902;12.308;2022-12-10T02:25:34;94107.47;;;1.03;94.29
69171;BME280;56279;47.902;12.308;2022-12-10T02:27:51;94116.06;;;1.04;93.87
69171;BME280;56279;47.902;12.308;2022-12-10T02:29:57;94108.25;;;1.04;93.68
69171;BME280;56279;47.902;12.308;2022-12-10T02:32:21;94104.41;;;1.06;94.72
69171;BME280;56279;47.902;12.308;2022-12-10T02:34:30;94107.00;;;1.06;94.34
69171;BME280;56279;47.902;12.308;2022-12-10T02:36:38;94114.00;;;1.06;94.10
69171;BME280;56279;47.902;12.308;2022-12-10T02:38:41;94116.06;;;1.04;94.26
69171;BME280;56279;47.902;12.308;2022-12-10T02:40:46;94118.91;;;1.02;93.51
69171;BME280;56279;47.902;12.308;2022-12-10T02:42:50;94111.59;;;0.99;93.54
69171;BME280;56279;47.902;12.308;2022-12-10T02:44:56;94111.59;;;0.99;94.41
69171;BME280;56279;47.902;12.308;2022-12-10T02:47:02;94101.47;;;0.98;94.30
69171;BME280;56279;47.902;12.308;2022-12-10T02:49:12;94098.88;;;0.98;93.80
69171;BME280;56279;47.902;12.308;2022-12-10T02:51:14;94105.88;;;0.97;93.44
69171;BME280;56279;47.902;12.308;2022-12-10T02:53:17;94104.31;;;0.96;93.52
69171;BME280;56279;47.902;12.308;2022-12-10T02:55:19;94106.66;;;0.98;94.50
69171;BME280;56279;47.902;12.308;2022-12-10T02:57:37;94102.50;;;0.97;94.15
69171;BME280;56279;47.902;12.308;2022-12-10T03:02:07;94100.16;;;0.95;94.21
69171;BME280;56279;47.902;12.308;2022-12-10T03:04:17;94100.16;;;0.95;94.00
69171;BME280;56279;47.902;12.308;2022-12-10T03:06:33;94110.75;;;0.94;94.02
69171;BME280;56279;47.902;12.308;2022-12-10T03:08:45;94108.16;;;0.94;94.20
69171;BME280;56279;47.902;12.308;2022-12-10T03:11:20;94105.56;;;0.94;94.69
69171;BME280;56279;47.902;12.308;2022-12-10T03:13:26;94106.84;;;0.91;94.06
69171;BME280;56279;47.902;12.308;2022-12-10T03:15:33;94103.72;;;0.89;94.02
69171;BME280;56279;47.902;12.308;2022-12-10T03:17:37;94105.25;;;0.85;94.47
69171;BME280;56279;47.902;12.308;2022-12-10T03:19:44;94106.78;;;0.81;93.95
69171;BME280;56279;47.902;12.308;2022-12-10T03:21:48;94111.91;;;0.76;93.90
69171;BME280;56279;47.902;12.308;2022-12-10T03:23:51;94112.19;;;0.75;94.56
69171;BME280;56279;47.902;12.308;2022-12-10T03:25:52;94110.13;;;0.77;94.55
69171;BME280;56279;47.902;12.308;2022-12-10T03:27:55;94109.84;;;0.78;94.63
69171;BME280;56279;47.902;12.308;2022-12-10T03:29:57;94104.66;;;0.78;94.44
69171;BME280;56279;47.902;12.308;2022-12-10T03:32:01;94121.56;;;0.81;94.10
69171;BME280;56279;47.902;12.308;2022-12-10T03:34:04;94115.09;;;0.83;94.37
69171;BME280;56279;47.902;12.308;2022-12-10T03:36:07;94115.63;;;0.85;94.14
69171;BME280;56279;47.902;12.308;2022-12-10T03:38:09;94111.50;;;0.89;94.47
69171;BME280;56279;47.902;12.308;2022-12-10T03:40:11;94114.63;;;0.91;94.01
69171;BME280;56279;47.902;12.308;2022-12-10T03:42:14;94115.19;;;0.93;94.97
69171;BME280;56279;47.902;12.308;2022-12-10T03:44:28;94108.97;;;0.94;94.03
69171;BME280;56279;47.902;12.308;2022-12-10T03:46:31;94114.69;;;0.96;94.98
69171;BME280;56279;47.902;12.308;2022-12-10T03:48:32;94118.56;;;0.94;94.87
69171;BME280;56279;47.902;12.308;2022-12-10T03:50:34;94107.16;;;0.95;93.94
69171;BME280;56279;47.902;12.308;2022-12-10T03:52:35;94113.38;;;0.94;94.52
69171;BME280;56279;47.902;12.308;2022-12-10T03:54:36;94119.34;;;0.94;94.73
69171;BME280;56279;47.902;12.308;2022-12-10T03:56:37;94118.34;;;0.95;94.86
69171;BME280;56279;47.902;12.308;2022-12-10T03:58:39;94115.47;;;0.97;94.63
69171;BME280;56279;47.902;12.308;2022-12-10T04:00:41;94114.47;;;0.98;94.95
69171;BME280;56279;47.902;12.308;2022-12-10T04:02:45;94113.66;;;0.97;94.02
69171;BME280;56279;47.902;12.308;2022-12-10T04:04:46;94116.78;;;0.99;94.75
69171;BME280;56279;47.902;12.308;2022-12-10T04:06:47;94112.41;;;1.00;94.85
69171;BME280;56279;47.902;12.308;2022-12-10T04:08:48;94110.06;;;1.03;94.54
69171;BME280;56279;47.902;12.308;2022-12-10T04:10:51;94111.66;;;1.04;94.72
69171;BME280;56279;47.902;12.308;2022-12-10T04:12:52;94105.94;;;1.02;95.01
69171;BME280;56279;47.902;12.308;2022-12-10T04:15:15;94106.94;;;1.01;94.60
69171;BME280;56279;47.902;12.308;2022-12-10T04:17:34;94103.31;;;1.02;95.48
69171;BME280;56279;47.902;12.308;2022-12-10T04:19:36;94098.66;;;1.04;95.29
69171;BME280;56279;47.902;12.308;2022-12-10T04:21:39;94091.66;;;1.05;94.36
69171;BME280;56279;47.902;12.308;2022-12-10T04:23:59;94097.63;;;1.05;94.51
69171;BME280;56279;47.902;12.308;2022-12-10T04:26:18;94094.00;;;1.06;94.79
69171;BME280;56279;47.902;12.308;2022-12-10T04:28:38;94095.81;;;1.06;95.06
69171;BME280;56279;47.902;12.308;2022-12-10T04:30:39;94090.63;;;1.06;94.09
69171;BME280;56279;47.902;12.308;2022-12-10T04:32:41;94099.44;;;1.05;94.90
69171;BME280;56279;47.902;12.308;2022-12-10T04:34:42;94094.50;;;1.03;95.15
69171;BME280;56279;47.902;12.308;2022-12-10T04:36:43;94101.50;;;1.03;94.77
69171;BME280;56279;47.902;12.308;2022-12-10T04:38:45;94099.16;;;1.01;94.64
69171;BME280;56279;47.902;12.308;2022-12-10T04:40:46;94095.53;;;1.02;94.58
69171;BME280;56279;47.902;12.308;2022-12-10T04:42:48;94089.56;;;1.02;94.60
69171;BME280;56279;47.902;12.308;2022-12-10T04:44:50;94092.41;;;1.00;94.97
69171;BME280;56279;47.902;12.308;2022-12-10T04:46:52;94095.22;;;0.99;94.55
69171;BME280;56279;47.902;12.308;2022-12-10T04:48:53;94093.38;;;0.94;94.56
69171;BME280;56279;47.902;12.308;2022-12-10T04:50:56;94087.41;;;0.94;94.94
69171;BME280;56279;47.902;12.308;2022-12-10T04:52:57;94095.97;;;0.94;95.17
69171;BME280;56279;47.902;12.308;2022-12-10T04:54:58;94093.13;;;0.96;94.77
69171;BME280;56279;47.902;12.308;2022-12-10T04:56:59;94093.44;;;0.99;94.88
69171;BME280;56279;47.902;12.308;2022-12-10T04:59:02;94092.41;;;1.00;95.33
69171;BME280;56279;47.902;12.308;2022-12-10T05:01:05;94093.97;;;1.01;95.24
69171;BME280;56279;47.902;12.308;2022-12-10T05:03:07;94096.81;;;1.00;95.25
69171;BME280;56279;47.902;12.308;2022-12-10T05:05:08;94096.56;;;1.01;94.81
69171;BME280;56279;47.902;12.308;2022-12-10T05:07:09;94089.28;;;1.03;95.39
69171;BME280;56279;47.902;12.308;2022-12-10T05:09:12;94090.09;;;1.04;94.25
69171;BME280;56279;47.902;12.308;2022-12-10T05:11:17;94088.81;;;1.06;94.99
69171;BME280;56279;47.902;12.308;2022-12-10T05:13:18;94082.03;;;1.05;95.24
69171;BME280;56279;47.902;12.308;2022-12-10T05:15:19;94084.63;;;1.05;94.67
69171;BME280;56279;47.902;12.308;2022-12-10T05:17:21;94089.59;;;1.07;94.56
69171;BME280;56279;47.902;12.308;2022-12-10T05:19:22;94089.59;;;1.07;95.41
69171;BME280;56279;47.902;12.308;2022-12-10T05:21:28;94085.19;;;1.07;94.77
69171;BME280;56279;47.902;12.308;2022-12-10T05:23:52;94081.53;;;1.08;94.80
69171;BME280;56279;47.902;12.308;2022-12-10T05:26:00;94081.28;;;1.10;95.09
69171;BME280;56279;47.902;12.308;2022-12-10T05:28:01;94081.06;;;1.11;94.19
69171;BME280;56279;47.902;12.308;2022-12-10T05:30:03;94078.47;;;1.11;94.75
69171;BME280;56279;47.902;12.308;2022-12-10T05:32:05;94079.78;;;1.14;94.62
69171;BME280;56279;47.902;12.308;2022-12-10T05:34:10;94086.53;;;1.15;95.60
69171;BME280;56279;47.902;12.308;2022-12-10T05:36:13;94089.91;;;1.15;95.11
69171;BME280;56279;47.902;12.308;2022-12-10T05:38:14;94088.09;;;1.16;94.36
69171;BME280;56279;47.902;12.308;2022-12-10T05:40:16;94084.72;;;1.15;94.94
69171;BME280;56279;47.902;12.308;2022-12-10T05:42:17;94091.50;;;1.16;94.72
69171;BME280;56279;47.902;12.308;2022-12-10T05:44:19;94096.44;;;1.18;94.81
69171;BME280;56279;47.902;12.308;2022-12-10T05:46:22;94093.81;;;1.18;94.40
69171;BME280;56279;47.902;12.308;2022-12-10T05:48:24;94094.63;;;1.18;94.63
69171;BME280;56279;47.902;12.308;2022-12-10T05:50:25;94094.63;;;1.18;95.47
69171;BME280;56279;47.902;12.308;2022-12-10T05:52:27;94109.94;;;1.20;94.60
69171;BME280;56279;47.902;12.308;2022-12-10T05:54:28;94110.75;;;1.20;94.85
69171;BME280;56279;47.902;12.308;2022-12-10T05:56:29;94114.34;;;1.19;94.65
69171;BME280;56279;47.902;12.308;2022-12-10T05:58:31;94116.19;;;1.19;94.84
69171;BME280;56279;47.902;12.308;2022-12-10T06:00:33;94108.41;;;1.19;94.56
69171;BME280;56279;47.902;12.308;2022-12-10T06:02:34;94108.94;;;1.21;94.87
69171;BME280;56279;47.902;12.308;2022-12-10T06:04:35;94103.72;;;1.21;95.44
69171;BME280;56279;47.902;12.308;2022-12-10T06:06:38;94102.47;;;1.23;94.24
69171;BME280;56279;47.902;12.308;2022-12-10T06:08:39;94105.06;;;1.23;95.43
69171;BME280;56279;47.902;12.308;2022-12-10T06:10:42;94104.78;;;1.25;95.23
69171;BME280;56279;47.902;12.308;2022-12-10T06:12:43;94105.59;;;1.25;95.11
69171;BME280;56279;47.902;12.308;2022-12-10T06:14:46;94105.59;;;1.25;95.34
69171;BME280;56279;47.902;12.308;2022-12-10T06:16:47;94108.72;;;1.27;94.52
69171;BME280;56279;47.902;12.308;2022-12-10T06:18:48;94116.78;;;1.26;94.48
69171;BME280;56279;47.902;12.308;2022-12-10T06:20:51;94121.72;;;1.27;93.96
69171;BME280;56279;47.902;12.308;2022-12-10T06:22:52;94115.47;;;1.28;94.92
69171;BME280;56279;47.902;12.308;2022-12-10T06:24:53;94123.25;;;1.28;95.02
69171;BME280;56279;47.902;12.308;2022-12-10T06:26:55;94118.06;;;1.28;94.62
69171;BME280;56279;47.902;12.308;2022-12-10T06:28:57;94119.91;;;1.28;94.80
69171;BME280;56279;47.902;12.308;2022-12-10T06:31:00;94119.91;;;1.28;94.71
69171;BME280;56279;47.902;12.308;2022-12-10T06:33:01;94120.91;;;1.27;94.25
69171;BME280;56279;47.902;12.308;2022-12-10T06:35:04;94117.25;;;1.23;94.79
69171;BME280;56279;47.902;12.308;2022-12-10T06:37:07;94123.72;;;1.20;94.02
69171;BME280;56279;47.902;12.308;2022-12-10T06:39:08;94126.31;;;1.20;94.45
69171;BME280;56279;47.902;12.308;2022-12-10T06:41:12;94135.13;;;1.19;95.10
69171;BME280;56279;47.902;12.308;2022-12-10T06:43:14;94124.00;;;1.19;94.67
69171;BME280;56279;47.902;12.308;2022-12-10T06:45:15;94125.78;;;1.18;94.69
69171;BME280;56279;47.902;12.308;2022-12-10T06:47:18;94131.78;;;1.19;94.47
69171;BME280;56279;47.902;12.308;2022-12-10T06:49:23;94128.41;;;1.18;94.98
69171;BME280;56279;47.902;12.308;2022-12-10T06:51:26;94124.00;;;1.19;95.13
69171;BME280;56279;47.902;12.308;2022-12-10T06:53:28;94126.81;;;1.17;94.54
69171;BME280;56279;47.902;12.308;2022-12-10T06:55:31;94127.88;;;1.16;95.30
69171;BME280;56279;47.902;12.308;2022-12-10T06:57:32;94128.88;;;1.15;94.82
69171;BME280;56279;47.902;12.308;2022-12-10T06:59:34;94132.53;;;1.14;94.84
69171;BME280;56279;47.902;12.308;2022-12-10T07:01:37;94127.56;;;1.13;94.50
69171;BME280;56279;47.902;12.308;2022-12-10T07:03:40;94133.53;;;1.13;94.76
69171;BME280;56279;47.902;12.308;2022-12-10T07:05:44;94128.59;;;1.12;94.10
69171;BME280;56279;47.902;12.308;2022-12-10T07:07:46;94131.19;;;1.12;94.65
69171;BME280;56279;47.902;12.308;2022-12-10T07:09:48;94126.78;;;1.12;94.97
69171;BME280;56279;47.902;12.308;2022-12-10T07:11:49;94124.72;;;1.14;95.20
69171;BME280;56279;47.902;12.308;2022-12-10T07:13:51;94128.63;;;1.17;95.07
69171;BME280;56279;47.902;12.308;2022-12-10T07:15:52;94118.22;;;1.17;94.89
69171;BME280;56279;47.902;12.308;2022-12-10T07:17:54;94122.66;;;1.16;95.32
69171;BME280;56279;47.902;12.308;2022-12-10T07:19:56;94123.44;;;1.17;94.45
69171;BME280;56279;47.902;12.308;2022-12-10T07:21:57;94116.94;;;1.19;94.72
69171;BME280;56279;47.902;12.308;2022-12-10T07:24:09;94115.69;;;1.22;95.50
69171;BME280;56279;47.902;12.308;2022-12-10T07:26:11;94116.47;;;1.22;94.52
69171;BME280;56279;47.902;12.308;2022-12-10T07:28:14;94109.47;;;1.23;94.77
69171;BME280;56279;47.902;12.308;2022-12-10T07:30:15;94113.59;;;1.24;94.68
69171;BME280;56279;47.902;12.308;2022-12-10T07:32:16;94119.09;;;1.27;94.95
69171;BME280;56279;47.902;12.308;2022-12-10T07:34:19;94123.03;;;1.30;94.88
69171;BME280;56279;47.902;12.308;2022-12-10T07:36:21;94116.56;;;1.32;94.78
69171;BME280;56279;47.902;12.308;2022-12-10T07:38:25;94113.69;;;1.34;94.36
69171;BME280;56279;47.902;12.308;2022-12-10T07:40:27;94115.00;;;1.36;95.33
69171;BME280;56279;47.902;12.308;2022-12-10T07:42:28;94120.75;;;1.38;94.91
69171;BME280;56279;47.902;12.308;2022-12-10T07:44:30;94122.31;;;1.39;94.50
69171;BME280;56279;47.902;12.308;2022-12-10T07:46:32;94120.75;;;1.38;94.56
69171;BME280;56279;47.902;12.308;2022-12-10T07:48:35;94129.81;;;1.36;94.18
69171;BME280;56279;47.902;12.308;2022-12-10T07:50:36;94128.50;;;1.33;94.67
69171;BME280;56279;47.902;12.308;2022-12-10T07:52:38;94131.63;;;1.35;94.16
69171;BME280;56279;47.902;12.308;2022-12-10T07:54:40;94121.22;;;1.35;94.31
69171;BME280;56279;47.902;12.308;2022-12-10T07:56:41;94121.22;;;1.35;94.13
69171;BME280;56279;47.902;12.308;2022-12-10T07:58:44;94122.03;;;1.36;94.21
69171;BME280;56279;47.902;12.308;2022-12-10T08:00:47;94126.72;;;1.39;94.27
69171;BME280;56279;47.902;12.308;2022-12-10T08:02:49;94120.25;;;1.42;94.24
69171;BME280;56279;47.902;12.308;2022-12-10T08:04:50;94118.44;;;1.47;95.20
69171;BME280;56279;47.902;12.308;2022-12-10T08:06:54;94117.72;;;1.52;94.44
69171;BME280;56279;47.902;12.308;2022-12-10T08:08:58;94116.94;;;1.51;94.03
69171;BME280;56279;47.902;12.308;2022-12-10T08:11:00;94123.69;;;1.52;94.44
69171;BME280;56279;47.902;12.308;2022-12-10T08:13:02;94116.69;;;1.53;93.89
69171;BME280;56279;47.902;12.308;2022-12-10T08:15:04;94128.94;;;1.57;93.98
69171;BME280;56279;47.902;12.308;2022-12-10T08:17:06;94128.69;;;1.59;94.10
69171;BME280;56279;47.902;12.308;2022-12-10T08:19:09;94121.16;;;1.62;93.69
69171;BME280;56279;47.902;12.308;2022-12-10T08:21:30;94126.63;;;1.66;93.68
69171;BME280;56279;47.902;12.308;2022-12-10T08:23:33;94121.19;;;1.67;93.44
69171;BME280;56279;47.902;12.308;2022-12-10T08:25:36;94114.69;;;1.65;93.27
69171;BME280;56279;47.902;12.308;2022-12-10T08:27:39;94112.09;;;1.65;94.10
69171;BME280;56279;47.902;12.308;2022-12-10T08:29:41;94118.31;;;1.64;93.74
69171;BME280;56279;47.902;12.308;2022-12-10T08:31:43;94113.63;;;1.61;93.66
69171;BME280;56279;47.902;12.308;2022-12-10T08:33:44;94120.63;;;1.60;93.50
69171;BME280;56279;47.902;12.308;2022-12-10T08:35:46;94116.22;;;1.61;93.48
69171;BME280;56279;47.902;12.308;2022-12-10T08:37:48;94129.22;;;1.66;93.33
69171;BME280;56279;47.902;12.308;2022-12-10T08:39:49;94127.72;;;1.70;93.97
69171;BME280;56279;47.902;12.308;2022-12-10T08:41:50;94131.91;;;1.76;93.26
69171;BME280;56279;47.902;12.308;2022-12-10T08:43:52;94136.13;;;1.82;93.64
69171;BME280;56279;47.902;12.308;2022-12-10T08:45:58;94134.06;;;1.89;93.12
69171;BME280;56279;47.902;12.308;2022-12-10T08:48:01;94137.25;;;1.96;93.24
69171;BME280;56279;47.902;12.308;2022-12-10T08:50:05;94130.72;;;1.93;93.07
69171;BME280;56279;47.902;12.308;2022-12-10T08:52:06;94140.56;;;1.91;92.91
69171;BME280;56279;47.902;12.308;2022-12-10T08:54:08;94143.69;;;1.88;93.17
69171;BME280;56279;47.902;12.308;2022-12-10T08:56:09;94144.19;;;1.85;92.79
69171;BME280;56279;47.902;12.308;2022-12-10T08:58:12;94141.06;;;1.83;92.93
69171;BME280;56279;47.902;12.308;2022-12-10T09:00:13;94143.94;;;1.87;93.39
69171;BME280;56279;47.902;12.308;2022-12-10T09:02:17;94139.00;;;1.90;93.21
69171;BME280;56279;47.902;12.308;2022-12-10T09:04:18;94140.84;;;1.95;93.51
69171;BME280;56279;47.902;12.308;2022-12-10T09:06:22;94134.09;;;1.99;92.69
69171;BME280;56279;47.902;12.308;2022-12-10T09:08:26;94138.59;;;2.08;92.49
69171;BME280;56279;47.902;12.308;2022-12-10T09:10:27;94136.06;;;2.24;92.62
69171;BME280;56279;47.902;12.308;2022-12-10T09:12:29;94138.22;;;2.42;92.49
69171;BME280;56279;47.902;12.308;2022-12-10T09:14:30;94142.44;;;2.58;92.69
69171;BME280;56279;47.902;12.308;2022-12-10T09:16:35;94151.31;;;2.72;92.09
69171;BME280;56279;47.902;12.308;2022-12-10T09:18:37;94155.28;;;2.85;91.66
69171;BME280;56279;47.902;12.308;2022-12-10T09:20:38;94165.97;;;2.93;91.88
69171;BME280;56279;47.902;12.308;2022-12-10T09:22:40;94158.41;;;2.97;90.95
69171;BME280;56279;47.902;12.308;2022-12-10T09:24:41;94157.88;;;2.95;91.48
69171;BME280;56279;47.902;12.308;2022-12-10T09:26:44;94167.53;;;2.89;91.14
69171;BME280;56279;47.902;12.308;2022-12-10T09:28:46;94166.22;;;2.87;91.27
69171;BME280;56279;47.902;12.308;2022-12-10T09:30:58;94165.44;;;2.86;91.38
69171;BME280;56279;47.902;12.308;2022-12-10T09:33:00;94166.47;;;2.80;90.77
69171;BME280;56279;47.902;12.308;2022-12-10T09:35:02;94170.06;;;2.74;91.37
69171;BME280;56279;47.902;12.308;2022-12-10T09:37:04;94165.88;;;2.63;91.36
69171;BME280;56279;47.902;12.308;2022-12-10T09:39:05;94174.47;;;2.58;91.50
69171;BME280;56279;47.902;12.308;2022-12-10T09:41:32;94170.03;;;2.54;91.80
69171;BME280;56279;47.902;12.308;2022-12-10T09:45:56;94166.81;;;2.37;91.72
69171;BME280;56279;47.902;12.308;2022-12-10T09:50:20;94168.34;;;2.28;92.43
69171;BME280;56279;47.902;12.308;2022-12-10T09:52:26;94173.28;;;2.29;92.38
69171;BME280;56279;47.902;12.308;2022-12-10T09:54:34;94167.59;;;2.32;91.69
69171;BME280;56279;47.902;12.308;2022-12-10T09:56:38;94163.97;;;2.33;91.42
69171;BME280;56279;47.902;12.308;2022-12-10T09:58:41;94163.97;;;2.33;92.04
69171;BME280;56279;47.902;12.308;2022-12-10T10:00:44;94165.50;;;2.34;91.66
69171;BME280;56279;47.902;12.308;2022-12-10T10:02:49;94151.19;;;2.37;91.77
69171;BME280;56279;47.902;12.308;2022-12-10T10:04:56;94156.69;;;2.40;91.41
69171;BME280;56279;47.902;12.308;2022-12-10T10:07:00;94149.91;;;2.39;91.12
69171;BME280;56279;47.902;12.308;2022-12-10T10:09:03;94150.69;;;2.35;90.91
69171;BME280;56279;47.902;12.308;2022-12-10T10:11:19;94152.22;;;2.26;91.41
69171;BME280;56279;47.902;12.308;2022-12-10T10:13:35;94145.69;;;2.23;91.55
69171;BME280;56279;47.902;12.308;2022-12-10T10:15:41;94144.91;;;2.23;91.88
69171;BME280;56279;47.902;12.308;2022-12-10T10:17:43;94144.63;;;2.19;91.58
69171;BME280;56279;47.902;12.308;2022-12-10T10:19:48;94145.41;;;2.25;91.51
69171;BME280;56279;47.902;12.308;2022-12-10T10:21:51;94133.22;;;2.30;91.15
69171;BME280;56279;47.902;12.308;2022-12-10T10:23:54;94132.19;;;2.26;91.95
69171;BME280;56279;47.902;12.308;2022-12-10T10:25:57;94133.16;;;2.20;91.48
69171;BME280;56279;47.902;12.308;2022-12-10T10:27:58;94135.25;;;2.18;91.57
69171;BME280;56279;47.902;12.308;2022-12-10T10:30:02;94140.19;;;2.15;92.26
69171;BME280;56279;47.902;12.308;2022-12-10T10:32:21;94138.09;;;2.12;91.63
69171;BME280;56279;47.902;12.308;2022-12-10T10:34:23;94135.75;;;2.10;91.68
69171;BME280;56279;47.902;12.308;2022-12-10T10:36:27;94132.88;;;2.12;92.48
69171;BME280;56279;47.902;12.308;2022-12-10T10:38:29;94133.91;;;2.10;92.41
69171;BME280;56279;47.902;12.308;2022-12-10T10:40:44;94135.19;;;2.08;91.42
69171;BME280;56279;47.902;12.308;2022-12-10T10:42:47;94134.13;;;2.04;91.63
69171;BME280;56279;47.902;12.308;2022-12-10T10:44:52;94130.47;;;2.00;91.71
69171;BME280;56279;47.902;12.308;2022-12-10T10:46:55;94136.72;;;1.99;92.19
69171;BME280;56279;47.902;12.308;2022-12-10T10:49:14;94134.91;;;1.99;92.45
69171;BME280;56279;47.902;12.308;2022-12-10T10:51:23;94134.44;;;2.07;91.91
69171;BME280;56279;47.902;12.308;2022-12-10T10:53:35;94135.00;;;2.15;92.10
69171;BME280;56279;47.902;12.308;2022-12-10T10:55:42;94130.03;;;2.18;91.33
69171;BME280;56279;47.902;12.308;2022-12-10T10:57:47;94125.34;;;2.15;91.36
69171;BME280;56279;47.902;12.308;2022-12-10T10:59:56;94128.19;;;2.14;91.37
69171;BME280;56279;47.902;12.308;2022-12-10T11:04:05;94120.44;;;2.19;91.22
69171;BME280;56279;47.902;12.308;2022-12-10T11:06:07;94124.06;;;2.18;91.61
69171;BME280;56279;47.902;12.308;2022-12-10T11:08:16;94124.84;;;2.18;91.09
69171;BME280;56279;47.902;12.308;2022-12-10T11:10:22;94123.81;;;2.24;90.92
69171;BME280;56279;47.902;12.308;2022-12-10T11:12:33;94115.78;;;2.26;91.57
69171;BME280;56279;47.902;12.308;2022-12-10T11:14:40;94120.72;;;2.32;90.77
69171;BME280;56279;47.902;12.308;2022-12-10T11:16:46;94116.84;;;2.35;91.44